sensor_id;sensor_type;location;lat;lon;timestamp;P1;durP1;ratioP1;P2;durP2;ratioP2
64957;SDS011;51486;50.232;19.208;2024-02-21T00:00:08;21.17;;;7.93;;
64957;SDS011;51486;50.232;19.208;2024-02-21T00:02:34;13.73;;;6.30;;
64957;SDS011;51486;50.232;19.208;2024-02-21T00:05:00;16.60;;;6.60;;
64957;SDS011;51486;50.232;19.208;2024-02-21T00:07:25;13.33;;;5.97;;
64957;SDS011;51486;50.232;19.208;2024-02-21T00:09:51;14.17;;;5.80;;
64957;SDS011;51486;50.232;19.208;2024-02-21T00:12:16;12.17;;;5.13;;
64957;SDS011;51486;50.232;19.208;2024-02-21T00:14:41;18.43;;;5.90;;
64957;SDS011;51486;50.232;19.208;2024-02-21T00:17:07;11.80;;;4.27;;
64957;SDS011;51486;50.232;19.208;2024-02-21T00:19:33;10.47;;;5.07;;
64957;SDS011;51486;50.232;19.208;2024-02-21T00:21:59;12.13;;;5.60;;
64957;SDS011;51486;50.232;19.208;2024-02-21T00:24:24;18.17;;;6.57;;
64957;SDS011;51486;50.232;19.208;2024-02-21T00:26:50;16.40;;;6.53;;
64957;SDS011;51486;50.232;19.208;2024-02-21T00:29:15;16.53;;;6.50;;
64957;SDS011;51486;50.232;19.208;2024-02-21T00:31:41;17.57;;;6.93;;
64957;SDS011;51486;50.232;19.208;2024-02-21T00:34:06;14.97;;;6.67;;
64957;SDS011;51486;50.232;19.208;2024-02-21T00:36:32;18.40;;;7.63;;
64957;SDS011;51486;50.232;19.208;2024-02-21T00:38:57;19.50;;;8.80;;
64957;SDS011;51486;50.232;19.208;2024-02-21T00:41:23;23.37;;;9.47;;
64957;SDS011;51486;50.232;19.208;2024-02-21T00:43:48;27.50;;;9.70;;
64957;SDS011;51486;50.232;19.208;2024-02-21T00:46:15;29.27;;;9.77;;
64957;SDS011;51486;50.232;19.208;2024-02-21T00:48:40;19.83;;;8.13;;
64957;SDS011;51486;50.232;19.208;2024-02-21T00:51:06;16.27;;;7.33;;
64957;SDS011;51486;50.232;19.208;2024-02-21T00:53:31;20.90;;;8.33;;
64957;SDS011;51486;50.232;19.208;2024-02-21T00:55:57;16.47;;;8.13;;
64957;SDS011;51486;50.232;19.208;2024-02-21T00:58:22;17.10;;;7.80;;
64957;SDS011;51486;50.232;19.208;2024-02-21T01:00:48;16.40;;;7.03;;
64957;SDS011;51486;50.232;19.208;2024-02-21T01:03:14;15.63;;;6.47;;
64957;SDS011;51486;50.232;19.208;2024-02-21T01:05:39;16.50;;;7.00;;
64957;SDS011;51486;50.232;19.208;2024-02-21T01:08:05;13.77;;;4.80;;
64957;SDS011;51486;50.232;19.208;2024-02-21T01:10:30;11.73;;;5.43;;
64957;SDS011;51486;50.232;19.208;2024-02-21T01:12:56;13.33;;;6.03;;
64957;SDS011;51486;50.232;19.208;2024-02-21T01:15:21;10.47;;;5.57;;
64957;SDS011;51486;50.232;19.208;2024-02-21T01:17:47;16.83;;;6.13;;
64957;SDS011;51486;50.232;19.208;2024-02-21T01:20:12;13.30;;;6.57;;
64957;SDS011;51486;50.232;19.208;2024-02-21T01:22:38;14.50;;;6.37;;
64957;SDS011;51486;50.232;19.208;2024-02-21T01:25:03;13.97;;;6.40;;
64957;SDS011;51486;50.232;19.208;2024-02-21T01:27:29;14.53;;;6.83;;
64957;SDS011;51486;50.232;19.208;2024-02-21T01:29:55;18.60;;;8.10;;
64957;SDS011;51486;50.232;19.208;2024-02-21T01:32:21;21.87;;;7.17;;
64957;SDS011;51486;50.232;19.208;2024-02-21T01:34:49;17.57;;;7.53;;
64957;SDS011;51486;50.232;19.208;2024-02-21T01:37:14;19.67;;;7.30;;
64957;SDS011;51486;50.232;19.208;2024-02-21T01:39:40;15.37;;;7.33;;
64957;SDS011;51486;50.232;19.208;2024-02-21T01:42:05;19.77;;;8.33;;
64957;SDS011;51486;50.232;19.208;2024-02-21T01:44:31;15.60;;;6.90;;
64957;SDS011;51486;50.232;19.208;2024-02-21T01:46:57;16.50;;;6.87;;
64957;SDS011;51486;50.232;19.208;2024-02-21T01:49:22;21.30;;;8.37;;
64957;SDS011;51486;50.232;19.208;2024-02-21T01:51:48;18.43;;;8.03;;
64957;SDS011;51486;50.232;19.208;2024-02-21T01:54:15;16.97;;;7.83;;
64957;SDS011;51486;50.232;19.208;2024-02-21T01:56:42;24.40;;;8.73;;
64957;SDS011;51486;50.232;19.208;2024-02-21T01:59:08;23.40;;;8.93;;
64957;SDS011;51486;50.232;19.208;2024-02-21T02:01:33;21.73;;;9.10;;
64957;SDS011;51486;50.232;19.208;2024-02-21T02:03:59;20.90;;;8.77;;
64957;SDS011;51486;50.232;19.208;2024-02-21T02:06:25;20.23;;;8.23;;
64957;SDS011;51486;50.232;19.208;2024-02-21T02:08:50;20.17;;;7.67;;
64957;SDS011;51486;50.232;19.208;2024-02-21T02:11:16;25.03;;;9.10;;
64957;SDS011;51486;50.232;19.208;2024-02-21T02:13:42;16.47;;;8.17;;
64957;SDS011;51486;50.232;19.208;2024-02-21T02:16:07;24.13;;;8.63;;
64957;SDS011;51486;50.232;19.208;2024-02-21T02:18:32;21.00;;;9.37;;
64957;SDS011;51486;50.232;19.208;2024-02-21T02:20:58;17.70;;;9.10;;
64957;SDS011;51486;50.232;19.208;2024-02-21T02:23:30;21.63;;;8.10;;
64957;SDS011;51486;50.232;19.208;2024-02-21T02:25:59;14.37;;;7.60;;
64957;SDS011;51486;50.232;19.208;2024-02-21T02:28:26;19.83;;;7.60;;
64957;SDS011;51486;50.232;19.208;2024-02-21T02:30:52;16.80;;;7.43;;
64957;SDS011;51486;50.232;19.208;2024-02-21T02:33:17;19.17;;;7.73;;
64957;SDS011;51486;50.232;19.208;2024-02-21T02:35:43;26.03;;;6.97;;
64957;SDS011;51486;50.232;19.208;2024-02-21T02:38:09;18.73;;;8.43;;
64957;SDS011;51486;50.232;19.208;2024-02-21T02:40:37;12.23;;;6.00;;
64957;SDS011;51486;50.232;19.208;2024-02-21T02:43:03;16.47;;;7.10;;
64957;SDS011;51486;50.232;19.208;2024-02-21T02:45:28;23.90;;;6.93;;
64957;SDS011;51486;50.232;19.208;2024-02-21T02:47:54;20.90;;;6.10;;
64957;SDS011;51486;50.232;19.208;2024-02-21T02:50:21;18.43;;;5.83;;
64957;SDS011;51486;50.232;19.208;2024-02-21T02:52:47;17.80;;;6.03;;
64957;SDS011;51486;50.232;19.208;2024-02-21T02:55:13;14.03;;;5.53;;
64957;SDS011;51486;50.232;19.208;2024-02-21T02:57:39;23.60;;;5.70;;
64957;SDS011;51486;50.232;19.208;2024-02-21T03:00:06;12.17;;;5.97;;
64957;SDS011;51486;50.232;19.208;2024-02-21T03:02:33;15.27;;;6.27;;
64957;SDS011;51486;50.232;19.208;2024-02-21T03:04:58;16.27;;;5.87;;
64957;SDS011;51486;50.232;19.208;2024-02-21T03:07:24;13.93;;;5.03;;
64957;SDS011;51486;50.232;19.208;2024-02-21T03:09:50;12.00;;;5.43;;
64957;SDS011;51486;50.232;19.208;2024-02-21T03:12:16;16.47;;;4.73;;
64957;SDS011;51486;50.232;19.208;2024-02-21T03:14:49;16.80;;;5.80;;
64957;SDS011;51486;50.232;19.208;2024-02-21T03:17:15;15.47;;;4.40;;
64957;SDS011;51486;50.232;19.208;2024-02-21T03:19:41;18.90;;;4.77;;
64957;SDS011;51486;50.232;19.208;2024-02-21T03:22:06;18.30;;;5.93;;
64957;SDS011;51486;50.232;19.208;2024-02-21T03:24:32;11.10;;;5.37;;
64957;SDS011;51486;50.232;19.208;2024-02-21T03:26:58;10.90;;;5.73;;
64957;SDS011;51486;50.232;19.208;2024-02-21T03:29:24;15.63;;;6.37;;
64957;SDS011;51486;50.232;19.208;2024-02-21T03:31:50;20.07;;;6.57;;
64957;SDS011;51486;50.232;19.208;2024-02-21T03:34:15;15.67;;;5.90;;
64957;SDS011;51486;50.232;19.208;2024-02-21T03:36:41;18.43;;;6.47;;
64957;SDS011;51486;50.232;19.208;2024-02-21T03:39:06;12.53;;;7.03;;
64957;SDS011;51486;50.232;19.208;2024-02-21T03:41:34;16.20;;;7.10;;
64957;SDS011;51486;50.232;19.208;2024-02-21T03:43:59;11.93;;;6.03;;
64957;SDS011;51486;50.232;19.208;2024-02-21T03:46:25;23.17;;;6.97;;
64957;SDS011;51486;50.232;19.208;2024-02-21T03:48:51;18.77;;;7.33;;
64957;SDS011;51486;50.232;19.208;2024-02-21T03:51:16;16.13;;;6.97;;
64957;SDS011;51486;50.232;19.208;2024-02-21T03:53:42;18.73;;;7.57;;
64957;SDS011;51486;50.232;19.208;2024-02-21T03:56:07;19.43;;;8.00;;
64957;SDS011;51486;50.232;19.208;2024-02-21T03:58:33;16.60;;;8.43;;
64957;SDS011;51486;50.232;19.208;2024-02-21T04:01:02;15.80;;;8.30;;
64957;SDS011;51486;50.232;19.208;2024-02-21T04:03:28;21.67;;;8.37;;
64957;SDS011;51486;50.232;19.208;2024-02-21T04:05:53;22.03;;;7.17;;
64957;SDS011;51486;50.232;19.208;2024-02-21T04:08:19;17.17;;;7.40;;
64957;SDS011;51486;50.232;19.208;2024-02-21T04:10:44;20.07;;;7.30;;
64957;SDS011;51486;50.232;19.208;2024-02-21T04:13:10;16.67;;;8.63;;
64957;SDS011;51486;50.232;19.208;2024-02-21T04:15:35;14.63;;;7.40;;
64957;SDS011;51486;50.232;19.208;2024-02-21T04:18:01;14.37;;;7.17;;
64957;SDS011;51486;50.232;19.208;2024-02-21T04:20:28;18.67;;;7.80;;
64957;SDS011;51486;50.232;19.208;2024-02-21T04:22:53;15.00;;;7.23;;
64957;SDS011;51486;50.232;19.208;2024-02-21T04:25:19;22.27;;;8.97;;
64957;SDS011;51486;50.232;19.208;2024-02-21T04:27:45;13.70;;;7.90;;
64957;SDS011;51486;50.232;19.208;2024-02-21T04:30:11;15.40;;;7.53;;
64957;SDS011;51486;50.232;19.208;2024-02-21T04:32:36;18.00;;;7.57;;
64957;SDS011;51486;50.232;19.208;2024-02-21T04:35:02;20.67;;;7.00;;
64957;SDS011;51486;50.232;19.208;2024-02-21T04:37:27;19.77;;;9.07;;
64957;SDS011;51486;50.232;19.208;2024-02-21T04:39:53;19.90;;;9.30;;
64957;SDS011;51486;50.232;19.208;2024-02-21T04:42:18;23.03;;;10.17;;
64957;SDS011;51486;50.232;19.208;2024-02-21T04:44:44;29.93;;;11.30;;
64957;SDS011;51486;50.232;19.208;2024-02-21T04:47:09;25.07;;;10.13;;
64957;SDS011;51486;50.232;19.208;2024-02-21T04:49:35;20.07;;;9.47;;
64957;SDS011;51486;50.232;19.208;2024-02-21T04:52:00;25.10;;;10.30;;
64957;SDS011;51486;50.232;19.208;2024-02-21T04:54:26;16.33;;;8.27;;
64957;SDS011;51486;50.232;19.208;2024-02-21T04:56:52;18.73;;;7.97;;
64957;SDS011;51486;50.232;19.208;2024-02-21T04:59:17;20.47;;;8.53;;
64957;SDS011;51486;50.232;19.208;2024-02-21T05:01:43;16.97;;;6.80;;
64957;SDS011;51486;50.232;19.208;2024-02-21T05:04:08;17.50;;;7.33;;
64957;SDS011;51486;50.232;19.208;2024-02-21T05:06:37;23.67;;;8.83;;
64957;SDS011;51486;50.232;19.208;2024-02-21T05:09:04;18.07;;;7.30;;
64957;SDS011;51486;50.232;19.208;2024-02-21T05:11:30;20.33;;;7.93;;
64957;SDS011;51486;50.232;19.208;2024-02-21T05:13:55;17.07;;;8.50;;
64957;SDS011;51486;50.232;19.208;2024-02-21T05:16:21;16.47;;;7.60;;
64957;SDS011;51486;50.232;19.208;2024-02-21T05:18:46;15.93;;;7.57;;
64957;SDS011;51486;50.232;19.208;2024-02-21T05:21:12;17.77;;;8.07;;
64957;SDS011;51486;50.232;19.208;2024-02-21T05:23:38;20.80;;;7.13;;
64957;SDS011;51486;50.232;19.208;2024-02-21T05:26:04;16.23;;;6.50;;
64957;SDS011;51486;50.232;19.208;2024-02-21T05:28:30;13.93;;;7.40;;
64957;SDS011;51486;50.232;19.208;2024-02-21T05:30:56;12.37;;;6.67;;
64957;SDS011;51486;50.232;19.208;2024-02-21T05:33:21;21.90;;;6.97;;
64957;SDS011;51486;50.232;19.208;2024-02-21T05:35:47;13.47;;;6.77;;
64957;SDS011;51486;50.232;19.208;2024-02-21T05:38:13;13.23;;;6.87;;
64957;SDS011;51486;50.232;19.208;2024-02-21T05:40:39;23.13;;;6.83;;
64957;SDS011;51486;50.232;19.208;2024-02-21T05:43:05;22.43;;;7.23;;
64957;SDS011;51486;50.232;19.208;2024-02-21T05:45:30;12.67;;;6.33;;
64957;SDS011;51486;50.232;19.208;2024-02-21T05:47:56;20.13;;;7.93;;
64957;SDS011;51486;50.232;19.208;2024-02-21T05:50:22;18.47;;;8.23;;
64957;SDS011;51486;50.232;19.208;2024-02-21T05:52:50;21.13;;;8.07;;
64957;SDS011;51486;50.232;19.208;2024-02-21T05:55:16;15.23;;;8.07;;
64957;SDS011;51486;50.232;19.208;2024-02-21T05:57:42;17.67;;;6.43;;
64957;SDS011;51486;50.232;19.208;2024-02-21T06:00:07;15.23;;;7.40;;
64957;SDS011;51486;50.232;19.208;2024-02-21T06:02:33;19.37;;;6.87;;
64957;SDS011;51486;50.232;19.208;2024-02-21T06:04:59;20.80;;;6.90;;
64957;SDS011;51486;50.232;19.208;2024-02-21T06:07:24;14.00;;;7.00;;
64957;SDS011;51486;50.232;19.208;2024-02-21T06:09:50;15.60;;;7.20;;
64957;SDS011;51486;50.232;19.208;2024-02-21T06:12:15;15.83;;;7.27;;
64957;SDS011;51486;50.232;19.208;2024-02-21T06:14:40;16.23;;;6.70;;
64957;SDS011;51486;50.232;19.208;2024-02-21T06:17:06;16.07;;;7.37;;
64957;SDS011;51486;50.232;19.208;2024-02-21T06:19:31;20.10;;;7.63;;
64957;SDS011;51486;50.232;19.208;2024-02-21T06:21:57;20.97;;;8.93;;
64957;SDS011;51486;50.232;19.208;2024-02-21T06:24:22;16.13;;;8.20;;
64957;SDS011;51486;50.232;19.208;2024-02-21T06:26:48;17.73;;;7.47;;
64957;SDS011;51486;50.232;19.208;2024-02-21T06:29:13;17.27;;;7.67;;
64957;SDS011;51486;50.232;19.208;2024-02-21T06:31:40;21.97;;;8.60;;
64957;SDS011;51486;50.232;19.208;2024-02-21T06:34:05;15.73;;;7.13;;
64957;SDS011;51486;50.232;19.208;2024-02-21T06:36:31;20.67;;;8.03;;
64957;SDS011;51486;50.232;19.208;2024-02-21T06:38:56;22.30;;;8.00;;
64957;SDS011;51486;50.232;19.208;2024-02-21T06:41:22;17.73;;;7.40;;
64957;SDS011;51486;50.232;19.208;2024-02-21T06:43:48;20.23;;;7.47;;
64957;SDS011;51486;50.232;19.208;2024-02-21T06:46:23;18.97;;;7.73;;
64957;SDS011;51486;50.232;19.208;2024-02-21T06:48:50;19.30;;;7.10;;
64957;SDS011;51486;50.232;19.208;2024-02-21T06:51:15;13.93;;;7.20;;
64957;SDS011;51486;50.232;19.208;2024-02-21T06:53:41;22.20;;;7.37;;
64957;SDS011;51486;50.232;19.208;2024-02-21T06:56:07;17.33;;;7.13;;
64957;SDS011;51486;50.232;19.208;2024-02-21T06:58:33;19.53;;;7.10;;
64957;SDS011;51486;50.232;19.208;2024-02-21T07:00:58;25.40;;;7.60;;
64957;SDS011;51486;50.232;19.208;2024-02-21T07:03:24;18.33;;;8.17;;
64957;SDS011;51486;50.232;19.208;2024-02-21T07:05:49;14.50;;;6.90;;
64957;SDS011;51486;50.232;19.208;2024-02-21T07:08:15;18.00;;;5.90;;
64957;SDS011;51486;50.232;19.208;2024-02-21T07:10:40;16.07;;;6.07;;
64957;SDS011;51486;50.232;19.208;2024-02-21T07:13:06;12.87;;;5.83;;
64957;SDS011;51486;50.232;19.208;2024-02-21T07:15:31;15.57;;;6.13;;
64957;SDS011;51486;50.232;19.208;2024-02-21T07:17:58;12.60;;;6.17;;
64957;SDS011;51486;50.232;19.208;2024-02-21T07:20:24;16.33;;;5.33;;
64957;SDS011;51486;50.232;19.208;2024-02-21T07:22:49;11.67;;;6.10;;
64957;SDS011;51486;50.232;19.208;2024-02-21T07:25:15;11.63;;;6.00;;
64957;SDS011;51486;50.232;19.208;2024-02-21T07:27:40;18.30;;;6.30;;
64957;SDS011;51486;50.232;19.208;2024-02-21T07:30:07;12.27;;;6.20;;
64957;SDS011;51486;50.232;19.208;2024-02-21T07:32:32;10.60;;;5.00;;
64957;SDS011;51486;50.232;19.208;2024-02-21T07:34:58;12.97;;;5.80;;
64957;SDS011;51486;50.232;19.208;2024-02-21T07:37:23;10.87;;;4.63;;
64957;SDS011;51486;50.232;19.208;2024-02-21T07:39:49;16.47;;;5.40;;
64957;SDS011;51486;50.232;19.208;2024-02-21T07:42:14;13.77;;;5.17;;
64957;SDS011;51486;50.232;19.208;2024-02-21T07:44:40;11.00;;;5.80;;
64957;SDS011;51486;50.232;19.208;2024-02-21T07:47:06;7.83;;;4.23;;
64957;SDS011;51486;50.232;19.208;2024-02-21T07:49:32;11.93;;;5.73;;
64957;SDS011;51486;50.232;19.208;2024-02-21T07:52:00;11.37;;;5.33;;
64957;SDS011;51486;50.232;19.208;2024-02-21T07:54:25;10.70;;;5.17;;
64957;SDS011;51486;50.232;19.208;2024-02-21T07:56:51;11.90;;;4.90;;
64957;SDS011;51486;50.232;19.208;2024-02-21T07:59:16;9.87;;;5.27;;
64957;SDS011;51486;50.232;19.208;2024-02-21T08:01:42;24.63;;;6.87;;
64957;SDS011;51486;50.232;19.208;2024-02-21T08:04:09;14.13;;;5.93;;
64957;SDS011;51486;50.232;19.208;2024-02-21T08:06:35;18.37;;;5.40;;
64957;SDS011;51486;50.232;19.208;2024-02-21T08:09:00;13.60;;;5.07;;
64957;SDS011;51486;50.232;19.208;2024-02-21T08:11:26;17.10;;;4.93;;
64957;SDS011;51486;50.232;19.208;2024-02-21T08:13:51;13.80;;;6.83;;
64957;SDS011;51486;50.232;19.208;2024-02-21T08:16:16;18.67;;;6.40;;
64957;SDS011;51486;50.232;19.208;2024-02-21T08:18:43;18.40;;;6.80;;
64957;SDS011;51486;50.232;19.208;2024-02-21T08:21:09;10.27;;;5.67;;
64957;SDS011;51486;50.232;19.208;2024-02-21T08:23:35;15.10;;;7.67;;
64957;SDS011;51486;50.232;19.208;2024-02-21T08:26:02;15.97;;;5.93;;
64957;SDS011;51486;50.232;19.208;2024-02-21T08:28:29;16.13;;;6.53;;
64957;SDS011;51486;50.232;19.208;2024-02-21T08:30:54;9.37;;;5.47;;
64957;SDS011;51486;50.232;19.208;2024-02-21T08:33:20;8.50;;;4.70;;
64957;SDS011;51486;50.232;19.208;2024-02-21T08:35:49;12.37;;;4.23;;
64957;SDS011;51486;50.232;19.208;2024-02-21T08:38:15;10.63;;;4.23;;
64957;SDS011;51486;50.232;19.208;2024-02-21T08:40:40;17.73;;;5.77;;
64957;SDS011;51486;50.232;19.208;2024-02-21T08:43:06;13.90;;;5.73;;
64957;SDS011;51486;50.232;19.208;2024-02-21T08:45:31;8.20;;;5.10;;
64957;SDS011;51486;50.232;19.208;2024-02-21T08:47:57;18.87;;;8.00;;
64957;SDS011;51486;50.232;19.208;2024-02-21T08:50:22;8.53;;;4.83;;
64957;SDS011;51486;50.232;19.208;2024-02-21T08:52:47;9.07;;;4.77;;
64957;SDS011;51486;50.232;19.208;2024-02-21T08:55:13;17.77;;;5.67;;
64957;SDS011;51486;50.232;19.208;2024-02-21T08:57:39;8.77;;;4.37;;
64957;SDS011;51486;50.232;19.208;2024-02-21T09:00:04;7.97;;;3.93;;
64957;SDS011;51486;50.232;19.208;2024-02-21T09:02:40;15.00;;;4.67;;
64957;SDS011;51486;50.232;19.208;2024-02-21T09:05:10;9.60;;;4.77;;
64957;SDS011;51486;50.232;19.208;2024-02-21T09:07:36;12.00;;;4.67;;
64957;SDS011;51486;50.232;19.208;2024-02-21T09:10:01;13.37;;;4.57;;
64957;SDS011;51486;50.232;19.208;2024-02-21T09:12:28;13.40;;;4.93;;
64957;SDS011;51486;50.232;19.208;2024-02-21T09:14:53;10.27;;;4.00;;
64957;SDS011;51486;50.232;19.208;2024-02-21T09:17:18;9.70;;;4.03;;
64957;SDS011;51486;50.232;19.208;2024-02-21T09:19:45;6.80;;;3.73;;
64957;SDS011;51486;50.232;19.208;2024-02-21T09:22:11;6.70;;;2.73;;
64957;SDS011;51486;50.232;19.208;2024-02-21T09:24:37;10.97;;;3.50;;
64957;SDS011;51486;50.232;19.208;2024-02-21T09:27:02;5.60;;;3.20;;
64957;SDS011;51486;50.232;19.208;2024-02-21T09:29:28;9.20;;;3.53;;
64957;SDS011;51486;50.232;19.208;2024-02-21T09:31:53;7.30;;;3.77;;
64957;SDS011;51486;50.232;19.208;2024-02-21T09:34:19;11.20;;;4.07;;
64957;SDS011;51486;50.232;19.208;2024-02-21T09:36:44;6.10;;;2.70;;
64957;SDS011;51486;50.232;19.208;2024-02-21T09:39:10;6.43;;;3.37;;
64957;SDS011;51486;50.232;19.208;2024-02-21T09:41:39;10.13;;;4.10;;
64957;SDS011;51486;50.232;19.208;2024-02-21T09:44:13;10.70;;;4.43;;
64957;SDS011;51486;50.232;19.208;2024-02-21T09:46:44;7.63;;;4.07;;
64957;SDS011;51486;50.232;19.208;2024-02-21T09:49:34;16.13;;;4.53;;
64957;SDS011;51486;50.232;19.208;2024-02-21T09:52:06;9.53;;;4.40;;
64957;SDS011;51486;50.232;19.208;2024-02-21T09:54:33;9.77;;;3.93;;
64957;SDS011;51486;50.232;19.208;2024-02-21T09:56:59;5.07;;;2.80;;
64957;SDS011;51486;50.232;19.208;2024-02-21T09:59:25;7.00;;;3.47;;
64957;SDS011;51486;50.232;19.208;2024-02-21T10:01:52;10.40;;;3.70;;
64957;SDS011;51486;50.232;19.208;2024-02-21T10:04:19;6.33;;;3.03;;
64957;SDS011;51486;50.232;19.208;2024-02-21T10:06:45;6.97;;;3.60;;
64957;SDS011;51486;50.232;19.208;2024-02-21T10:09:23;10.40;;;3.50;;
64957;SDS011;51486;50.232;19.208;2024-02-21T10:11:50;9.13;;;3.47;;
64957;SDS011;51486;50.232;19.208;2024-02-21T10:14:16;8.73;;;4.37;;
64957;SDS011;51486;50.232;19.208;2024-02-21T10:16:43;12.60;;;3.17;;
64957;SDS011;51486;50.232;19.208;2024-02-21T10:19:16;8.67;;;2.70;;
64957;SDS011;51486;50.232;19.208;2024-02-21T10:21:42;6.90;;;3.43;;
64957;SDS011;51486;50.232;19.208;2024-02-21T10:24:07;5.27;;;2.47;;
64957;SDS011;51486;50.232;19.208;2024-02-21T10:26:35;10.07;;;3.07;;
64957;SDS011;51486;50.232;19.208;2024-02-21T10:29:02;6.50;;;3.40;;
64957;SDS011;51486;50.232;19.208;2024-02-21T10:31:27;10.73;;;3.57;;
64957;SDS011;51486;50.232;19.208;2024-02-21T10:33:53;7.77;;;3.27;;
64957;SDS011;51486;50.232;19.208;2024-02-21T10:36:20;5.27;;;3.27;;
64957;SDS011;51486;50.232;19.208;2024-02-21T10:38:45;6.47;;;2.90;;
64957;SDS011;51486;50.232;19.208;2024-02-21T10:41:11;10.40;;;3.90;;
64957;SDS011;51486;50.232;19.208;2024-02-21T10:43:40;4.07;;;2.67;;
64957;SDS011;51486;50.232;19.208;2024-02-21T10:46:06;7.30;;;3.27;;
64957;SDS011;51486;50.232;19.208;2024-02-21T10:48:43;6.13;;;2.83;;
64957;SDS011;51486;50.232;19.208;2024-02-21T10:51:17;9.67;;;2.90;;
64957;SDS011;51486;50.232;19.208;2024-02-21T10:53:58;9.27;;;3.50;;
64957;SDS011;51486;50.232;19.208;2024-02-21T10:56:35;10.17;;;3.30;;
64957;SDS011;51486;50.232;19.208;2024-02-21T10:59:05;4.63;;;2.93;;
64957;SDS011;51486;50.232;19.208;2024-02-21T11:01:31;5.37;;;3.03;;
64957;SDS011;51486;50.232;19.208;2024-02-21T11:04:07;10.70;;;3.40;;
64957;SDS011;51486;50.232;19.208;2024-02-21T11:06:34;7.57;;;3.30;;
64957;SDS011;51486;50.232;19.208;2024-02-21T11:09:02;6.80;;;2.73;;
64957;SDS011;51486;50.232;19.208;2024-02-21T11:11:29;8.77;;;3.20;;
64957;SDS011;51486;50.232;19.208;2024-02-21T11:14:08;10.27;;;3.47;;
64957;SDS011;51486;50.232;19.208;2024-02-21T11:16:37;11.97;;;3.80;;
64957;SDS011;51486;50.232;19.208;2024-02-21T11:19:23;6.53;;;3.07;;
64957;SDS011;51486;50.232;19.208;2024-02-21T11:21:50;7.67;;;2.60;;
64957;SDS011;51486;50.232;19.208;2024-02-21T11:24:29;7.77;;;3.37;;
64957;SDS011;51486;50.232;19.208;2024-02-21T11:29:49;9.57;;;3.87;;
64957;SDS011;51486;50.232;19.208;2024-02-21T11:32:20;5.00;;;2.97;;
64957;SDS011;51486;50.232;19.208;2024-02-21T11:35:02;7.83;;;3.23;;
64957;SDS011;51486;50.232;19.208;2024-02-21T11:37:29;7.43;;;3.07;;
64957;SDS011;51486;50.232;19.208;2024-02-21T11:39:59;5.93;;;2.90;;
64957;SDS011;51486;50.232;19.208;2024-02-21T11:42:25;10.13;;;3.67;;
64957;SDS011;51486;50.232;19.208;2024-02-21T11:44:51;7.60;;;3.30;;
64957;SDS011;51486;50.232;19.208;2024-02-21T11:47:18;14.13;;;3.00;;
64957;SDS011;51486;50.232;19.208;2024-02-21T11:49:45;5.63;;;2.77;;
64957;SDS011;51486;50.232;19.208;2024-02-21T11:52:11;8.00;;;4.17;;
64957;SDS011;51486;50.232;19.208;2024-02-21T11:54:40;6.13;;;3.10;;
64957;SDS011;51486;50.232;19.208;2024-02-21T11:57:06;13.87;;;4.27;;
64957;SDS011;51486;50.232;19.208;2024-02-21T11:59:32;8.43;;;3.20;;
64957;SDS011;51486;50.232;19.208;2024-02-21T12:01:58;5.30;;;3.20;;
64957;SDS011;51486;50.232;19.208;2024-02-21T12:04:24;13.43;;;3.03;;
64957;SDS011;51486;50.232;19.208;2024-02-21T12:06:50;6.93;;;2.60;;
64957;SDS011;51486;50.232;19.208;2024-02-21T12:09:17;11.67;;;3.23;;
64957;SDS011;51486;50.232;19.208;2024-02-21T12:11:44;19.43;;;3.53;;
64957;SDS011;51486;50.232;19.208;2024-02-21T12:14:10;3.57;;;2.30;;
64957;SDS011;51486;50.232;19.208;2024-02-21T12:16:36;2.83;;;2.13;;
64957;SDS011;51486;50.232;19.208;2024-02-21T12:19:04;6.27;;;2.30;;
64957;SDS011;51486;50.232;19.208;2024-02-21T12:21:31;7.40;;;2.77;;
64957;SDS011;51486;50.232;19.208;2024-02-21T12:24:22;5.77;;;2.47;;
64957;SDS011;51486;50.232;19.208;2024-02-21T12:26:54;7.40;;;2.57;;
64957;SDS011;51486;50.232;19.208;2024-02-21T12:29:24;4.80;;;2.50;;
64957;SDS011;51486;50.232;19.208;2024-02-21T12:31:50;9.87;;;3.17;;
64957;SDS011;51486;50.232;19.208;2024-02-21T12:34:16;9.80;;;3.27;;
64957;SDS011;51486;50.232;19.208;2024-02-21T12:36:45;4.83;;;2.73;;
64957;SDS011;51486;50.232;19.208;2024-02-21T12:39:12;5.77;;;2.97;;
64957;SDS011;51486;50.232;19.208;2024-02-21T12:41:38;7.93;;;2.47;;
64957;SDS011;51486;50.232;19.208;2024-02-21T12:44:05;7.10;;;3.47;;
64957;SDS011;51486;50.232;19.208;2024-02-21T12:46:36;5.97;;;2.20;;
64957;SDS011;51486;50.232;19.208;2024-02-21T12:49:02;15.97;;;3.00;;
64957;SDS011;51486;50.232;19.208;2024-02-21T12:51:29;5.70;;;2.63;;
64957;SDS011;51486;50.232;19.208;2024-02-21T12:53:54;11.93;;;3.43;;
64957;SDS011;51486;50.232;19.208;2024-02-21T12:56:20;13.80;;;3.43;;
64957;SDS011;51486;50.232;19.208;2024-02-21T12:58:46;6.73;;;2.93;;
64957;SDS011;51486;50.232;19.208;2024-02-21T13:01:11;4.37;;;2.63;;
64957;SDS011;51486;50.232;19.208;2024-02-21T13:03:37;7.10;;;3.33;;
64957;SDS011;51486;50.232;19.208;2024-02-21T13:06:03;7.73;;;2.80;;
64957;SDS011;51486;50.232;19.208;2024-02-21T13:08:29;6.47;;;3.23;;
64957;SDS011;51486;50.232;19.208;2024-02-21T13:10:54;11.00;;;3.93;;
64957;SDS011;51486;50.232;19.208;2024-02-21T13:13:20;5.40;;;3.07;;
64957;SDS011;51486;50.232;19.208;2024-02-21T13:15:45;7.40;;;3.10;;
64957;SDS011;51486;50.232;19.208;2024-02-21T13:18:11;5.70;;;3.07;;
64957;SDS011;51486;50.232;19.208;2024-02-21T13:20:36;8.10;;;2.73;;
64957;SDS011;51486;50.232;19.208;2024-02-21T13:23:02;8.17;;;3.47;;
64957;SDS011;51486;50.232;19.208;2024-02-21T13:25:28;6.47;;;3.37;;
64957;SDS011;51486;50.232;19.208;2024-02-21T13:27:54;9.37;;;3.20;;
64957;SDS011;51486;50.232;19.208;2024-02-21T13:30:19;10.60;;;3.27;;
64957;SDS011;51486;50.232;19.208;2024-02-21T13:32:44;7.60;;;3.00;;
64957;SDS011;51486;50.232;19.208;2024-02-21T13:35:13;7.43;;;2.93;;
64957;SDS011;51486;50.232;19.208;2024-02-21T13:37:40;5.70;;;2.70;;
64957;SDS011;51486;50.232;19.208;2024-02-21T13:40:06;6.73;;;2.73;;
64957;SDS011;51486;50.232;19.208;2024-02-21T13:42:34;7.07;;;2.60;;
64957;SDS011;51486;50.232;19.208;2024-02-21T13:44:59;11.40;;;3.33;;
64957;SDS011;51486;50.232;19.208;2024-02-21T13:47:26;7.67;;;4.17;;
64957;SDS011;51486;50.232;19.208;2024-02-21T13:49:51;13.97;;;6.40;;
64957;SDS011;51486;50.232;19.208;2024-02-21T13:52:17;15.17;;;5.70;;
64957;SDS011;51486;50.232;19.208;2024-02-21T13:54:45;24.63;;;9.63;;
64957;SDS011;51486;50.232;19.208;2024-02-21T13:57:11;16.37;;;7.67;;
64957;SDS011;51486;50.232;19.208;2024-02-21T13:59:37;12.67;;;5.70;;
64957;SDS011;51486;50.232;19.208;2024-02-21T14:02:02;13.00;;;5.27;;
64957;SDS011;51486;50.232;19.208;2024-02-21T14:04:28;11.07;;;5.23;;
64957;SDS011;51486;50.232;19.208;2024-02-21T14:06:55;19.30;;;7.07;;
64957;SDS011;51486;50.232;19.208;2024-02-21T14:09:20;8.13;;;4.33;;
64957;SDS011;51486;50.232;19.208;2024-02-21T14:11:46;13.17;;;4.90;;
64957;SDS011;51486;50.232;19.208;2024-02-21T14:14:11;16.60;;;4.47;;
64957;SDS011;51486;50.232;19.208;2024-02-21T14:16:39;7.17;;;4.00;;
64957;SDS011;51486;50.232;19.208;2024-02-21T14:19:04;7.93;;;3.23;;
64957;SDS011;51486;50.232;19.208;2024-02-21T14:21:31;7.00;;;3.87;;
64957;SDS011;51486;50.232;19.208;2024-02-21T14:23:57;9.77;;;4.53;;